createdAt,value
2022-11-27T00:01:35.768Z,26.20
2022-11-27T00:04:05.769Z,22.77
2022-11-27T00:06:35.662Z,24.92
2022-11-27T00:09:08.068Z,24.40
2022-11-27T00:11:39.347Z,18.20
2022-11-27T00:14:10.994Z,31.77
2022-11-27T00:16:41.597Z,23.95
2022-11-27T00:19:11.493Z,23.35
2022-11-27T00:21:39.995Z,22.70
2022-11-27T00:24:10.509Z,25.60
2022-11-27T00:26:38.844Z,28.13
2022-11-27T00:29:07.848Z,27.67
2022-11-27T00:31:37.720Z,33.17
2022-11-27T00:34:09.016Z,40.53
2022-11-27T00:36:38.265Z,39.38
2022-11-27T00:39:10.959Z,38.78
2022-11-27T00:41:39.401Z,42.78
2022-11-27T00:44:07.716Z,38.83
2022-11-27T00:46:36.443Z,35.83
2022-11-27T00:49:06.182Z,34.63
2022-11-27T00:51:35.301Z,31.40
2022-11-27T00:54:04.501Z,39.00
2022-11-27T00:56:35.430Z,34.08
2022-11-27T00:59:05.663Z,26.95
2022-11-27T01:01:39.721Z,29.50
2022-11-27T01:04:13.866Z,24.88
2022-11-27T01:06:43.057Z,25.75
2022-11-27T01:09:15.137Z,22.77
2022-11-27T01:11:43.913Z,24.52
2022-11-27T01:14:17.597Z,25.27
2022-11-27T01:16:46.331Z,21.35
2022-11-27T01:19:16.954Z,31.85
2022-11-27T01:24:15.162Z,22.52
2022-11-27T01:26:44.525Z,21.65
2022-11-27T01:29:12.761Z,19.27
2022-11-27T01:31:41.469Z,23.15
2022-11-27T01:34:15.209Z,18.90
2022-11-27T01:36:44.551Z,19.70
2022-11-27T01:39:21.397Z,20.42
2022-11-27T01:41:50.273Z,22.40
2022-11-27T01:44:24.429Z,20.80
2022-11-27T01:47:06.917Z,21.45
2022-11-27T01:49:45.914Z,24.42
2022-11-27T01:52:22.193Z,23.90
2022-11-27T01:55:08.578Z,22.73
2022-11-27T01:57:43.137Z,27.55
2022-11-27T02:00:14.475Z,22.70
2022-11-27T02:02:48.999Z,25.05
2022-11-27T02:05:21.421Z,20.05
2022-11-27T02:07:51.866Z,16.80
2022-11-27T02:10:21.407Z,19.48
2022-11-27T02:13:00.303Z,20.17
2022-11-27T02:16:02.051Z,17.08
2022-11-27T02:18:39.458Z,17.83
2022-11-27T02:21:29.445Z,14.50
2022-11-27T02:24:18.911Z,20.37
2022-11-27T02:27:05.612Z,19.90
2022-11-27T02:29:35.370Z,18.33
2022-11-27T02:32:19.854Z,20.40
2022-11-27T02:34:57.224Z,21.20
2022-11-27T02:38:07.640Z,15.52
2022-11-27T02:41:00.276Z,19.52
2022-11-27T02:43:37.027Z,22.42
2022-11-27T02:46:08.083Z,24.83
2022-11-27T02:48:48.803Z,18.60
2022-11-27T02:51:22.103Z,20.02
2022-11-27T02:53:57.639Z,24.73
2022-11-27T02:56:28.808Z,17.52
2022-11-27T02:59:01.037Z,15.10
2022-11-27T03:01:38.838Z,29.52
2022-11-27T03:04:13.075Z,22.80
2022-11-27T03:06:47.335Z,22.40
2022-11-27T03:09:21.741Z,21.65
2022-11-27T03:11:50.573Z,18.65
2022-11-27T03:14:24.430Z,17.38
2022-11-27T03:16:55.800Z,14.48
2022-11-27T03:19:56.530Z,13.32
2022-11-27T03:22:26.867Z,16.95
2022-11-27T03:24:55.357Z,18.42
2022-11-27T03:27:40.119Z,16.48
2022-11-27T03:30:10.542Z,20.05
2022-11-27T03:32:39.036Z,18.45
2022-11-27T03:35:12.172Z,23.25
2022-11-27T03:37:40.886Z,16.88
2022-11-27T03:40:10.140Z,19.92
2022-11-27T03:43:13.673Z,12.75
2022-11-27T03:46:02.464Z,17.15
2022-11-27T03:48:38.314Z,16.50
2022-11-27T03:51:36.170Z,22.83
2022-11-27T03:54:10.965Z,16.02
2022-11-27T03:56:46.084Z,19.85
2022-11-27T03:59:20.997Z,13.98
2022-11-27T04:01:49.679Z,10.15
2022-11-27T04:04:18.133Z,20.13
2022-11-27T04:06:46.436Z,16.55
2022-11-27T04:09:15.220Z,14.88
2022-11-27T04:11:43.574Z,19.85
2022-11-27T04:14:11.886Z,18.60
2022-11-27T04:16:40.419Z,19.17
2022-11-27T04:19:09.618Z,16.52
2022-11-27T04:21:39.411Z,17.10
2022-11-27T04:24:07.977Z,12.52
2022-11-27T04:26:36.283Z,14.93
2022-11-27T04:29:04.587Z,17.67
2022-11-27T04:31:32.974Z,10.18
2022-11-27T04:34:01.329Z,12.52
2022-11-27T04:36:30.407Z,12.70
2022-11-27T04:39:00.861Z,12.32
2022-11-27T04:41:29.841Z,16.52
2022-11-27T04:43:58.271Z,10.80
2022-11-27T04:46:26.701Z,17.20
2022-11-27T04:48:55.149Z,16.35
2022-11-27T04:51:23.671Z,10.30
2022-11-27T04:53:51.972Z,13.68
2022-11-27T04:56:20.287Z,12.85
2022-11-27T04:58:48.582Z,17.38
2022-11-27T05:01:17.059Z,13.00
2022-11-27T05:03:47.278Z,13.30
2022-11-27T05:06:18.504Z,13.27
2022-11-27T05:08:46.852Z,17.40
2022-11-27T05:11:17.362Z,12.55
2022-11-27T05:13:45.783Z,17.27
2022-11-27T05:16:14.178Z,13.98
2022-11-27T05:18:42.471Z,14.48
2022-11-27T05:21:10.815Z,9.73
2022-11-27T05:23:39.100Z,13.63
2022-11-27T05:26:07.457Z,13.07
2022-11-27T05:28:35.761Z,10.95
2022-11-27T05:31:04.201Z,10.63
2022-11-27T05:33:32.558Z,11.27
2022-11-27T05:36:00.835Z,13.40
2022-11-27T05:38:29.422Z,15.48
2022-11-27T05:40:57.690Z,13.50
2022-11-27T05:43:25.972Z,13.82
2022-11-27T05:45:54.277Z,16.20
2022-11-27T05:48:22.589Z,15.93
2022-11-27T05:50:51.385Z,11.73
2022-11-27T05:53:19.771Z,14.30
2022-11-27T05:55:48.098Z,12.70
2022-11-27T05:58:16.733Z,10.65
2022-11-27T06:00:46.050Z,12.73
2022-11-27T06:03:15.136Z,14.27
2022-11-27T06:05:43.644Z,22.58
2022-11-27T06:08:11.973Z,15.10
2022-11-27T06:10:40.552Z,10.15
2022-11-27T06:13:08.965Z,18.63
2022-11-27T06:15:38.655Z,12.18
2022-11-27T06:18:07.937Z,11.82
2022-11-27T06:20:40.811Z,9.40
2022-11-27T06:23:11.984Z,9.98
2022-11-27T06:25:40.306Z,12.55
2022-11-27T06:28:08.577Z,16.25
2022-11-27T06:30:38.210Z,13.85
2022-11-27T06:33:06.585Z,8.25
2022-11-27T06:35:34.903Z,8.95
2022-11-27T06:38:03.273Z,11.93
2022-11-27T06:40:31.673Z,7.43
2022-11-27T06:43:00.009Z,11.18
2022-11-27T06:45:28.446Z,10.02
2022-11-27T06:47:56.812Z,10.88
2022-11-27T06:50:25.227Z,10.93
2022-11-27T06:52:53.528Z,8.32
2022-11-27T06:55:21.900Z,14.32
2022-11-27T06:57:51.407Z,14.32
2022-11-27T07:00:20.355Z,11.80
2022-11-27T07:02:54.023Z,7.90
2022-11-27T07:05:24.451Z,12.10
2022-11-27T07:07:52.795Z,8.70
2022-11-27T07:10:21.163Z,9.27
2022-11-27T07:12:49.599Z,9.10
2022-11-27T07:15:17.937Z,10.23
2022-11-27T07:17:46.230Z,8.50
2022-11-27T07:20:14.690Z,12.55
2022-11-27T07:22:42.990Z,9.73
2022-11-27T07:25:11.345Z,10.00
2022-11-27T07:27:39.968Z,12.23
2022-11-27T07:30:08.813Z,14.85
2022-11-27T07:32:37.181Z,10.82
2022-11-27T07:35:05.889Z,9.20
2022-11-27T07:37:34.243Z,11.20
2022-11-27T07:40:03.539Z,14.15
2022-11-27T07:42:39.545Z,8.80
2022-11-27T07:45:09.283Z,10.55
2022-11-27T07:47:37.937Z,11.23
2022-11-27T07:50:08.450Z,11.60
2022-11-27T07:52:41.491Z,14.18
2022-11-27T07:55:10.813Z,12.57
2022-11-27T07:57:39.229Z,12.48
2022-11-27T08:00:08.442Z,14.10
2022-11-27T08:02:36.838Z,15.55
2022-11-27T08:05:10.919Z,12.05
2022-11-27T08:07:41.399Z,13.80
2022-11-27T08:10:10.190Z,8.65
2022-11-27T08:12:38.883Z,10.43
2022-11-27T08:15:07.791Z,8.27
2022-11-27T08:17:36.699Z,14.93
2022-11-27T08:20:06.178Z,6.88
2022-11-27T08:22:35.292Z,8.93
2022-11-27T08:25:03.863Z,6.85
2022-11-27T08:27:33.857Z,10.95
2022-11-27T08:30:04.144Z,6.82
2022-11-27T08:32:32.894Z,9.70
2022-11-27T08:35:02.817Z,9.57
2022-11-27T08:37:31.271Z,10.25
2022-11-27T08:39:59.714Z,9.40
2022-11-27T08:42:28.093Z,11.60
2022-11-27T08:44:56.438Z,10.50
2022-11-27T08:47:24.845Z,8.05
2022-11-27T08:49:53.464Z,9.27
2022-11-27T08:52:22.184Z,10.65
2022-11-27T08:54:57.306Z,8.32
2022-11-27T08:57:26.378Z,9.18
2022-11-27T08:59:54.738Z,6.95
2022-11-27T09:02:23.559Z,10.32
2022-11-27T09:04:51.938Z,9.52
2022-11-27T09:07:20.258Z,9.60
2022-11-27T09:09:48.711Z,7.57
2022-11-27T09:12:17.066Z,15.70
2022-11-27T09:14:45.588Z,12.55
2022-11-27T09:17:17.339Z,9.50
2022-11-27T09:19:45.766Z,10.95
2022-11-27T09:22:14.175Z,8.48
2022-11-27T09:24:42.752Z,10.90
2022-11-27T09:27:11.381Z,9.02
2022-11-27T09:29:39.932Z,9.27
2022-11-27T09:32:08.280Z,12.80
2022-11-27T09:34:37.707Z,12.07
2022-11-27T09:37:06.620Z,7.53
2022-11-27T09:39:35.542Z,10.75
2022-11-27T09:42:06.433Z,11.15
2022-11-27T09:44:48.710Z,7.70
2022-11-27T09:47:41.055Z,10.20
2022-11-27T09:50:30.443Z,7.88
2022-11-27T09:53:11.504Z,8.43
2022-11-27T09:55:44.581Z,11.90
2022-11-27T09:58:36.816Z,11.80
2022-11-27T10:01:13.648Z,9.90
2022-11-27T10:03:44.192Z,12.00
2022-11-27T10:06:15.782Z,8.50
2022-11-27T10:08:57.733Z,7.63
2022-11-27T10:11:42.300Z,15.60
2022-11-27T10:14:26.488Z,12.07
2022-11-27T10:17:33.765Z,10.68
2022-11-27T10:20:16.585Z,11.95
2022-11-27T10:23:24.518Z,12.35
2022-11-27T10:26:04.001Z,12.35
2022-11-27T10:28:32.390Z,11.73
2022-11-27T10:31:14.773Z,11.63
2022-11-27T10:33:51.973Z,10.27
2022-11-27T10:36:30.787Z,9.25
2022-11-27T10:39:01.354Z,11.50
2022-11-27T10:42:09.038Z,12.13
2022-11-27T10:44:55.248Z,10.50
2022-11-27T10:47:28.539Z,8.85
2022-11-27T10:49:59.699Z,10.70
2022-11-27T10:52:27.994Z,9.35
2022-11-27T10:55:01.407Z,14.32
2022-11-27T10:57:57.955Z,18.73
2022-11-27T11:00:27.892Z,8.80
2022-11-27T11:03:05.526Z,10.05
2022-11-27T11:05:50.960Z,12.80
2022-11-27T11:08:25.389Z,12.82
2022-11-27T11:10:59.500Z,10.20
2022-11-27T11:13:30.155Z,13.73
2022-11-27T11:16:03.636Z,14.82
2022-11-27T11:18:35.749Z,12.00
2022-11-27T11:21:07.214Z,13.48
2022-11-27T11:23:38.663Z,12.02
2022-11-27T11:26:23.380Z,13.32
2022-11-27T11:28:55.349Z,11.65
2022-11-27T11:31:31.418Z,10.00
2022-11-27T11:34:03.921Z,11.68
2022-11-27T11:36:32.469Z,8.63
2022-11-27T11:39:00.875Z,7.93
2022-11-27T11:41:38.213Z,12.27
2022-11-27T11:44:06.619Z,11.90
2022-11-27T11:46:36.861Z,13.10
2022-11-27T11:49:07.477Z,11.73
2022-11-27T11:52:23.661Z,10.48
2022-11-27T11:55:01.859Z,13.75
2022-11-27T11:57:39.084Z,13.52
2022-11-27T12:00:15.940Z,12.90
2022-11-27T12:02:58.992Z,11.75
2022-11-27T12:05:45.924Z,14.43
2022-11-27T12:08:26.737Z,11.95
2022-11-27T12:10:58.812Z,10.63
2022-11-27T12:14:04.772Z,13.38
2022-11-27T12:17:10.817Z,8.85
2022-11-27T12:19:51.713Z,11.20
2022-11-27T12:22:29.303Z,11.32
2022-11-27T12:25:27.159Z,11.35
2022-11-27T12:28:18.898Z,13.50
2022-11-27T12:31:29.158Z,9.95
2022-11-27T12:34:17.827Z,12.93
2022-11-27T12:37:14.360Z,12.68
2022-11-27T12:40:18.966Z,10.52
2022-11-27T12:43:23.521Z,13.05
2022-11-27T12:45:59.324Z,13.95
2022-11-27T12:48:30.945Z,10.13
2022-11-27T12:51:06.893Z,12.30
2022-11-27T12:53:41.351Z,10.02
2022-11-27T12:56:16.905Z,9.05
2022-11-27T12:59:08.022Z,12.70
2022-11-27T13:02:28.208Z,8.68
2022-11-27T13:05:11.987Z,15.95
2022-11-27T13:07:50.187Z,12.38
2022-11-27T13:10:27.077Z,13.68
2022-11-27T13:13:06.087Z,11.50
2022-11-27T13:31:55.203Z,12.00
2022-11-27T13:34:28.005Z,12.07
2022-11-27T13:37:02.975Z,13.30
2022-11-27T13:39:36.936Z,12.95
2022-11-27T13:42:11.363Z,11.35
2022-11-27T14:29:53.131Z,11.52
2022-11-27T14:32:22.241Z,12.57
2022-11-27T14:34:50.793Z,12.05
2022-11-27T14:37:28.542Z,10.60
2022-11-27T14:39:56.908Z,10.40
2022-11-27T14:42:30.643Z,14.70
2022-11-27T14:45:08.487Z,13.98
2022-11-27T14:47:40.910Z,10.65
2022-11-27T14:50:14.510Z,14.02
2022-11-27T14:52:45.454Z,11.35
2022-11-27T14:55:17.754Z,11.90
2022-11-27T14:57:48.923Z,11.07
2022-11-27T15:00:27.268Z,12.65
2022-11-27T15:02:56.697Z,13.15
2022-11-27T15:05:29.111Z,12.70
2022-11-27T15:07:58.862Z,17.08
2022-11-27T15:10:36.279Z,15.43
2022-11-27T15:13:07.189Z,13.82
2022-11-27T15:15:42.911Z,11.50
2022-11-27T15:18:22.798Z,10.55
2022-11-27T15:20:51.917Z,15.10
2022-11-27T15:23:24.796Z,12.23
2022-11-27T15:26:17.821Z,14.85
2022-11-27T15:28:57.305Z,11.77
2022-11-27T15:31:33.481Z,14.57
2022-11-27T15:34:17.886Z,11.30
2022-11-27T15:36:51.911Z,13.98
2022-11-27T15:39:44.969Z,15.68
2022-11-27T15:42:14.688Z,11.35
2022-11-27T15:44:43.421Z,15.18
2022-11-27T15:47:26.627Z,15.70
2022-11-27T15:49:55.491Z,11.18
2022-11-27T15:52:24.355Z,13.15
2022-11-27T15:54:53.215Z,12.98
2022-11-27T15:57:21.509Z,15.98
2022-11-27T15:59:49.904Z,10.65
2022-11-27T16:02:19.062Z,14.30
2022-11-27T16:04:47.391Z,13.10
2022-11-27T16:07:15.825Z,13.98
2022-11-27T16:09:44.195Z,13.57
2022-11-27T16:12:12.611Z,14.43
2022-11-27T16:14:41.169Z,18.10
2022-11-27T16:17:09.876Z,18.25
2022-11-27T16:19:38.157Z,16.85
2022-11-27T16:22:07.103Z,12.63
2022-11-27T16:24:35.440Z,17.02
2022-11-27T16:27:03.709Z,17.52
2022-11-27T16:29:31.979Z,16.90
2022-11-27T16:32:01.330Z,13.50
2022-11-27T16:34:29.822Z,14.52
2022-11-27T16:36:58.054Z,11.43
2022-11-27T16:39:27.198Z,15.73
2022-11-27T16:41:55.788Z,12.13
2022-11-27T16:44:24.211Z,9.55
2022-11-27T16:46:54.109Z,10.07
2022-11-27T16:49:22.467Z,11.18
2022-11-27T16:51:51.595Z,9.82
2022-11-27T16:54:20.483Z,15.70
2022-11-27T16:56:48.971Z,10.15
2022-11-27T16:59:18.229Z,11.40
2022-11-27T17:01:47.261Z,9.98
2022-11-27T17:04:18.651Z,11.93
2022-11-27T17:06:49.090Z,10.57
2022-11-27T17:09:17.683Z,10.75
2022-11-27T17:11:50.203Z,13.25
2022-11-27T17:14:20.573Z,14.18
2022-11-27T17:16:50.526Z,16.25
2022-11-27T17:19:19.382Z,8.85
2022-11-27T17:21:47.937Z,9.88
2022-11-27T17:24:16.791Z,11.32
2022-11-27T17:26:47.631Z,10.40
2022-11-27T17:29:18.533Z,10.85
2022-11-27T17:34:17.119Z,10.38
2022-11-27T17:36:46.383Z,11.73
2022-11-27T17:39:15.527Z,7.63
2022-11-27T17:41:45.177Z,7.65
2022-11-27T17:44:13.646Z,9.35
2022-11-27T17:46:45.109Z,10.48
2022-11-27T17:49:14.234Z,10.50
2022-11-27T17:51:42.892Z,12.10
2022-11-27T17:54:11.737Z,14.13
2022-11-27T17:56:40.680Z,10.43
2022-11-27T17:59:10.897Z,11.07
2022-11-27T18:01:40.961Z,11.20
2022-11-27T18:04:10.696Z,11.70
2022-11-27T18:06:40.961Z,11.90
2022-11-27T18:09:11.427Z,11.95
2022-11-27T18:11:39.787Z,9.23
2022-11-27T18:14:08.214Z,11.90
2022-11-27T18:16:38.364Z,8.52
2022-11-27T18:19:09.877Z,11.48
2022-11-27T18:21:38.782Z,10.35
2022-11-27T18:24:24.342Z,9.10
2022-11-27T18:27:09.896Z,8.73
2022-11-27T18:29:41.546Z,12.73
2022-11-27T18:32:11.615Z,11.02
2022-11-27T18:34:40.572Z,9.30
2022-11-27T18:37:10.076Z,9.98
2022-11-27T18:39:39.817Z,7.10
2022-11-27T18:42:08.760Z,10.85
2022-11-27T18:44:44.418Z,9.57
2022-11-27T18:47:15.346Z,11.48
2022-11-27T18:49:47.475Z,8.65
2022-11-27T18:54:44.941Z,10.48
2022-11-27T18:57:13.543Z,9.32
2022-11-27T18:59:45.243Z,11.43
2022-11-27T19:02:13.929Z,12.05
2022-11-27T19:04:44.801Z,8.68
2022-11-27T19:07:13.502Z,13.18
2022-11-27T19:09:42.097Z,13.98
2022-11-27T19:12:10.695Z,9.98
2022-11-27T19:14:39.350Z,9.55
2022-11-27T19:17:09.096Z,9.13
2022-11-27T19:19:54.586Z,9.93
2022-11-27T19:22:23.603Z,7.97
2022-11-27T19:24:52.083Z,11.75
2022-11-27T19:27:20.831Z,9.93
2022-11-27T19:29:49.472Z,10.60
2022-11-27T19:32:18.093Z,10.40
2022-11-27T19:34:49.794Z,10.95
2022-11-27T19:37:33.134Z,8.90
2022-11-27T19:40:05.658Z,8.93
2022-11-27T19:42:34.893Z,9.25
2022-11-27T19:45:03.669Z,8.82
2022-11-27T19:47:32.050Z,8.48
2022-11-27T19:50:00.380Z,10.38
2022-11-27T19:52:29.127Z,11.15
2022-11-27T19:54:57.502Z,11.40
2022-11-27T19:57:26.392Z,9.85
2022-11-27T19:59:54.891Z,10.00
2022-11-27T20:02:24.909Z,8.30
2022-11-27T20:04:54.465Z,10.63
2022-11-27T20:07:24.012Z,10.48
2022-11-27T20:09:52.804Z,9.68
2022-11-27T20:12:21.728Z,6.55
2022-11-27T20:14:50.055Z,10.93
2022-11-27T20:17:19.952Z,29.40
2022-11-27T20:19:48.544Z,11.32
2022-11-27T20:22:17.038Z,8.60
2022-11-27T20:25:11.277Z,7.80
2022-11-27T20:27:36.429Z,10.43
2022-11-27T20:30:07.083Z,9.20
2022-11-27T20:32:35.494Z,7.03
2022-11-27T20:35:04.960Z,7.60
2022-11-27T20:37:34.103Z,8.88
2022-11-27T20:40:02.571Z,8.77
2022-11-27T20:42:31.089Z,7.93
2022-11-27T20:45:04.569Z,8.85
2022-11-27T20:47:34.612Z,8.18
2022-11-27T20:50:03.194Z,8.00
2022-11-27T20:52:31.505Z,8.00
2022-11-27T20:55:01.031Z,9.65
2022-11-27T20:57:31.368Z,9.05
2022-11-27T21:00:00.430Z,9.35
2022-11-27T21:02:28.937Z,8.05
2022-11-27T21:04:59.110Z,11.25
2022-11-27T21:07:27.651Z,8.25
2022-11-27T21:09:57.275Z,11.82
2022-11-27T21:12:25.677Z,8.57
2022-11-27T21:14:53.986Z,10.77
2022-11-27T21:17:22.269Z,8.85
2022-11-27T21:19:51.275Z,10.85
2022-11-27T21:22:19.695Z,11.55
2022-11-27T21:24:51.077Z,9.27
2022-11-27T21:27:19.803Z,16.65
2022-11-27T21:29:48.397Z,10.82
2022-11-27T21:32:18.388Z,9.63
2022-11-27T21:34:47.864Z,9.80
2022-11-27T21:37:16.515Z,12.27
2022-11-27T21:39:45.700Z,11.32
2022-11-27T21:42:16.580Z,12.57
2022-11-27T21:44:45.235Z,15.07
2022-11-27T21:47:15.248Z,8.45
2022-11-27T21:49:44.137Z,12.20
2022-11-27T21:52:14.706Z,8.43
2022-11-27T21:54:43.480Z,7.20
2022-11-27T21:57:13.080Z,8.82
2022-11-27T21:59:42.978Z,10.20
2022-11-27T22:02:12.044Z,9.80
2022-11-27T22:04:41.029Z,7.40
2022-11-27T22:07:09.896Z,8.93
2022-11-27T22:09:38.430Z,11.75
2022-11-27T22:12:07.166Z,7.88
2022-11-27T22:14:35.776Z,8.20
2022-11-27T22:17:04.258Z,9.52
2022-11-27T22:19:34.825Z,10.35
2022-11-27T22:22:03.615Z,8.38
2022-11-27T22:24:32.159Z,8.02
2022-11-27T22:27:00.477Z,9.80
2022-11-27T22:29:28.998Z,7.63
2022-11-27T22:31:57.403Z,8.00
2022-11-27T22:34:26.049Z,8.57
2022-11-27T22:36:56.164Z,11.77
2022-11-27T22:39:24.748Z,9.23
2022-11-27T22:41:53.224Z,9.68
2022-11-27T22:44:21.528Z,7.40
2022-11-27T22:46:50.888Z,7.90
2022-11-27T22:49:19.248Z,7.20
2022-11-27T22:51:48.140Z,8.93
2022-11-27T22:54:17.571Z,8.13
2022-11-27T22:56:46.908Z,7.70
2022-11-27T22:59:33.969Z,7.50
2022-11-27T23:02:06.319Z,9.98
2022-11-27T23:04:36.677Z,9.15
2022-11-27T23:07:06.108Z,8.45
2022-11-27T23:09:34.999Z,8.27
2022-11-27T23:12:03.651Z,8.30
2022-11-27T23:14:31.907Z,7.70
2022-11-27T23:17:00.315Z,9.05
2022-11-27T23:19:28.738Z,8.27
2022-11-27T23:21:57.026Z,10.90
2022-11-27T23:24:25.485Z,10.10
2022-11-27T23:26:53.779Z,8.57
2022-11-27T23:29:22.044Z,9.05
2022-11-27T23:31:50.418Z,10.38
2022-11-27T23:34:18.709Z,9.23
2022-11-27T23:36:47.297Z,9.68
2022-11-27T23:39:15.903Z,8.73
2022-11-27T23:41:44.383Z,9.93
2022-11-27T23:44:12.753Z,12.07
2022-11-27T23:46:41.043Z,11.65
2022-11-27T23:49:09.395Z,10.15
2022-11-27T23:51:37.810Z,11.90
2022-11-27T23:54:10.922Z,10.15
2022-11-27T23:56:39.453Z,9.10
2022-11-27T23:59:07.738Z,13.13
